Alexander, North Dakota
Current Conditions -  °F | °C
As of 10:52 PM on Friday 31 Oct 2014 (Local Time) from KISN Reporting Station
Clear Clear  
Wind Chill: 32°   Ceiling: Unl
Heat Index: 40°   Visibility: 10mi
Dew Point: 17°   Wind: 14mph
Humidity: 40%   Direction: 150°SSE
Pressure: 29.9"   Gusts: 25mph
Location:  47.84°N, 103.64°W
Report Text: KISN 010352Z AUTO 15012G22KT 10SM CLR 04/M08 A2990 RMK AO2 SLP147 T00441083
Loading
Personal Weather Stations






























Interactive Weather Map
Tropical Storm Tracking
New forecast layout! Learn more

10-Day Weather Forecast

Advertisements
Track Severe Weather on mobile